Details for WeGo Cargo at EGSS




Go Back


Latest METAR
Local Time

EGSS 252150Z AUTO 01003KT 3600 HZ BKN021 15/14 Q1020

25/05/2018, 23:21:38

Description
Results
WeGo Cargo Logo
Number of Pilots based at EGSS
2 Pilots Based here
Number of WeGo Cargo Flights Departed from EGSS
1 Flights Departed
Number of WeGo Cargo Flights Arrived at EGSS
2 Flights Arrived
Number of WeGo Cargo Schedules Departing from EGSS
17 Schedules
Number of WeGo Cargo Schedules Arriving at EGSS
17 Schedules
Number of WeGo Cargo Schedules Departing from EGSS availible today
17 Schedules Today
Number of WeGo Cargo Schedules Arriving at EGSS availible today
17 Schedules Today
Average Landing Rate at EGSS
-239 fpm
WeGo Cargo Average Landing Rate at EGSS
-181 fpm
Total Fuel Purchased at EGSS by WeGo Cargo
108.86 kgs / 239.99 lbs

Pilots Based at EGSS


Pilot ID
Pilot Name
Pilot Rank
No. of Flights
No. of Flying Hours
Ian Hart
51
167.28
Joerg Pfeiffer
39
50.27
Content